sensor_id;sensor_type;location;lat;lon;timestamp;pressure;altitude;pressure_sealevel;temperature;humidity
41140;BME280;26881;48.784;9.192;2023-01-29T00:04:04;99724.72;;;1.88;67.80
41140;BME280;26881;48.784;9.192;2023-01-29T00:09:27;99727.28;;;1.86;67.93
41140;BME280;26881;48.784;9.192;2023-01-29T00:14:49;99720.44;;;1.87;67.86
41140;BME280;26881;48.784;9.192;2023-01-29T00:20:11;99723.91;;;1.80;68.41
41140;BME280;26881;48.784;9.192;2023-01-29T00:25:33;99715.34;;;1.72;68.56
41140;BME280;26881;48.784;9.192;2023-01-29T00:30:54;99729.09;;;1.72;68.47
41140;BME280;26881;48.784;9.192;2023-01-29T00:36:18;99716.19;;;1.80;68.17
41140;BME280;26881;48.784;9.192;2023-01-29T00:41:40;99715.22;;;1.93;68.53
41140;BME280;26881;48.784;9.192;2023-01-29T00:47:20;99710.16;;;1.78;68.28
41140;BME280;26881;48.784;9.192;2023-01-29T00:52:54;99718.78;;;1.75;67.85
41140;BME280;26881;48.784;9.192;2023-01-29T00:58:16;99711.81;;;1.88;68.26
41140;BME280;26881;48.784;9.192;2023-01-29T01:03:46;99718.69;;;1.94;67.33
41140;BME280;26881;48.784;9.192;2023-01-29T01:09:09;99705.06;;;1.65;68.50
41140;BME280;26881;48.784;9.192;2023-01-29T01:15:07;99708.44;;;1.80;68.77
41140;BME280;26881;48.784;9.192;2023-01-29T01:20:31;99712.66;;;1.88;68.15
41140;BME280;26881;48.784;9.192;2023-01-29T01:25:54;99712.75;;;1.76;67.54
41140;BME280;26881;48.784;9.192;2023-01-29T01:31:15;99711.09;;;1.58;67.77
41140;BME280;26881;48.784;9.192;2023-01-29T01:36:37;99710.25;;;1.58;68.28
41140;BME280;26881;48.784;9.192;2023-01-29T01:41:59;99719.63;;;1.74;67.94
41140;BME280;26881;48.784;9.192;2023-01-29T01:47:29;99708.50;;;1.63;67.93
41140;BME280;26881;48.784;9.192;2023-01-29T01:52:54;99710.25;;;1.59;68.54
41140;BME280;26881;48.784;9.192;2023-01-29T01:58:24;99697.34;;;1.58;68.23
41140;BME280;26881;48.784;9.192;2023-01-29T02:03:52;99702.47;;;1.65;68.11
41140;BME280;26881;48.784;9.192;2023-01-29T02:09:39;99713.66;;;1.71;67.76
41140;BME280;26881;48.784;9.192;2023-01-29T02:15:02;99723.13;;;1.58;67.63
41140;BME280;26881;48.784;9.192;2023-01-29T02:20:26;99718.78;;;1.74;67.70
41140;BME280;26881;48.784;9.192;2023-01-29T02:25:58;99719.59;;;1.80;67.12
41140;BME280;26881;48.784;9.192;2023-01-29T02:31:40;99721.38;;;1.75;67.42
41140;BME280;26881;48.784;9.192;2023-01-29T02:37:09;99719.63;;;1.74;67.02
41140;BME280;26881;48.784;9.192;2023-01-29T02:42:42;99711.97;;;1.56;67.76
41140;BME280;26881;48.784;9.192;2023-01-29T02:48:05;99717.13;;;1.56;67.39
41140;BME280;26881;48.784;9.192;2023-01-29T02:53:40;99712.91;;;1.36;66.95
41140;BME280;26881;48.784;9.192;2023-01-29T02:59:13;99701.75;;;1.39;67.46
41140;BME280;26881;48.784;9.192;2023-01-29T03:04:41;99702.50;;;1.58;67.61
41140;BME280;26881;48.784;9.192;2023-01-29T03:10:16;99714.59;;;1.43;67.71
41140;BME280;26881;48.784;9.192;2023-01-29T03:15:43;99706.06;;;1.29;68.23
41140;BME280;26881;48.784;9.192;2023-01-29T03:21:10;99707.75;;;1.42;67.04
41140;BME280;26881;48.784;9.192;2023-01-29T03:27:02;99713.72;;;1.51;67.23
41140;BME280;26881;48.784;9.192;2023-01-29T03:32:46;99707.75;;;1.39;67.10
41140;BME280;26881;48.784;9.192;2023-01-29T03:38:10;99712.03;;;1.45;67.04
41140;BME280;26881;48.784;9.192;2023-01-29T03:43:40;99706.09;;;1.26;66.44
41140;BME280;26881;48.784;9.192;2023-01-29T03:49:14;99703.50;;;1.27;66.82
41140;BME280;26881;48.784;9.192;2023-01-29T03:54:53;99704.38;;;1.22;66.78
41140;BME280;26881;48.784;9.192;2023-01-29T04:00:22;99699.19;;;1.23;67.71
41140;BME280;26881;48.784;9.192;2023-01-29T04:11:16;99718.97;;;1.23;66.70
41140;BME280;26881;48.784;9.192;2023-01-29T04:16:46;99710.44;;;0.96;67.88
41140;BME280;26881;48.784;9.192;2023-01-29T04:22:12;99718.16;;;1.02;68.21
41140;BME280;26881;48.784;9.192;2023-01-29T04:28:07;99715.53;;;1.21;68.18
41140;BME280;26881;48.784;9.192;2023-01-29T04:39:44;99718.13;;;1.22;67.43
41140;BME280;26881;48.784;9.192;2023-01-29T04:45:17;99709.50;;;1.31;67.00
41140;BME280;26881;48.784;9.192;2023-01-29T04:50:53;99711.22;;;1.27;66.58
41140;BME280;26881;48.784;9.192;2023-01-29T04:56:25;99718.06;;;1.36;66.67
41140;BME280;26881;48.784;9.192;2023-01-29T05:01:50;99712.03;;;1.43;66.74
41140;BME280;26881;48.784;9.192;2023-01-29T05:07:13;99725.00;;;1.16;66.67
41140;BME280;26881;48.784;9.192;2023-01-29T05:12:36;99719.88;;;1.13;66.65
41140;BME280;26881;48.784;9.192;2023-01-29T05:17:58;99718.13;;;1.24;67.07
41140;BME280;26881;48.784;9.192;2023-01-29T05:23:23;99720.72;;;1.19;66.74
41140;BME280;26881;48.784;9.192;2023-01-29T05:28:45;99725.81;;;1.25;66.55
41140;BME280;26881;48.784;9.192;2023-01-29T05:34:06;99724.97;;;1.31;67.16
41140;BME280;26881;48.784;9.192;2023-01-29T05:39:28;99727.53;;;1.30;67.80
41140;BME280;26881;48.784;9.192;2023-01-29T05:44:50;99710.34;;;1.32;66.39
41140;BME280;26881;48.784;9.192;2023-01-29T05:50:13;99709.56;;;1.07;66.69
41140;BME280;26881;48.784;9.192;2023-01-29T05:55:35;99687.22;;;1.02;66.89
41140;BME280;26881;48.784;9.192;2023-01-29T06:00:57;99670.03;;;1.09;66.99
41140;BME280;26881;48.784;9.192;2023-01-29T06:06:27;99675.22;;;1.11;66.27
41140;BME280;26881;48.784;9.192;2023-01-29T06:11:49;99687.25;;;1.01;66.74
41140;BME280;26881;48.784;9.192;2023-01-29T06:17:11;99688.06;;;1.26;66.68
41140;BME280;26881;48.784;9.192;2023-01-29T06:22:33;99694.91;;;1.32;66.38
41140;BME280;26881;48.784;9.192;2023-01-29T06:27:54;99689.75;;;1.25;66.37
41140;BME280;26881;48.784;9.192;2023-01-29T06:33:19;99697.53;;;1.07;67.62
41140;BME280;26881;48.784;9.192;2023-01-29T06:38:41;99706.13;;;1.06;67.44
41140;BME280;26881;48.784;9.192;2023-01-29T06:44:03;99702.69;;;1.02;67.38
41140;BME280;26881;48.784;9.192;2023-01-29T06:49:25;99700.97;;;1.04;66.69
41140;BME280;26881;48.784;9.192;2023-01-29T06:54:47;99703.53;;;1.17;67.17
41140;BME280;26881;48.784;9.192;2023-01-29T07:00:09;99714.72;;;1.10;66.95
41140;BME280;26881;48.784;9.192;2023-01-29T07:05:31;99712.97;;;1.18;67.27
41140;BME280;26881;48.784;9.192;2023-01-29T07:10:58;99711.28;;;1.11;66.97
41140;BME280;26881;48.784;9.192;2023-01-29T07:16:20;99706.97;;;1.17;67.00
41140;BME280;26881;48.784;9.192;2023-01-29T07:21:42;99721.59;;;1.17;66.76
41140;BME280;26881;48.784;9.192;2023-01-29T07:27:04;99717.31;;;0.93;67.40
41140;BME280;26881;48.784;9.192;2023-01-29T07:32:27;99723.28;;;1.15;66.92
41140;BME280;26881;48.784;9.192;2023-01-29T07:37:49;99727.56;;;1.19;66.95
41140;BME280;26881;48.784;9.192;2023-01-29T07:43:11;99737.88;;;1.22;66.77
41140;BME280;26881;48.784;9.192;2023-01-29T07:48:33;99746.41;;;1.35;66.38
41140;BME280;26881;48.784;9.192;2023-01-29T07:53:55;99746.44;;;1.27;66.47
41140;BME280;26881;48.784;9.192;2023-01-29T07:59:17;99755.00;;;1.37;66.74
41140;BME280;26881;48.784;9.192;2023-01-29T08:04:38;99749.00;;;1.38;65.78
41140;BME280;26881;48.784;9.192;2023-01-29T08:10:00;99751.53;;;1.48;65.66
41140;BME280;26881;48.784;9.192;2023-01-29T08:15:22;99749.03;;;1.21;67.25
41140;BME280;26881;48.784;9.192;2023-01-29T08:20:44;99749.03;;;1.33;66.02
41140;BME280;26881;48.784;9.192;2023-01-29T08:26:06;99762.75;;;1.38;65.82
41140;BME280;26881;48.784;9.192;2023-01-29T08:31:28;99769.59;;;1.39;65.55
41140;BME280;26881;48.784;9.192;2023-01-29T08:36:50;99775.66;;;1.23;66.06
41140;BME280;26881;48.784;9.192;2023-01-29T08:42:12;99769.63;;;1.41;65.87
41140;BME280;26881;48.784;9.192;2023-01-29T08:47:34;99770.47;;;1.47;65.60
41140;BME280;26881;48.784;9.192;2023-01-29T08:52:57;99783.34;;;1.47;65.45
41140;BME280;26881;48.784;9.192;2023-01-29T08:58:19;99779.94;;;1.42;65.14
41140;BME280;26881;48.784;9.192;2023-01-29T09:03:41;99769.66;;;1.24;67.05
41140;BME280;26881;48.784;9.192;2023-01-29T09:09:05;99781.59;;;1.56;65.97
41140;BME280;26881;48.784;9.192;2023-01-29T09:14:26;99788.47;;;1.55;66.27
41140;BME280;26881;48.784;9.192;2023-01-29T09:19:48;99787.56;;;1.65;65.44
41140;BME280;26881;48.784;9.192;2023-01-29T09:25:12;99783.25;;;1.72;65.27
41140;BME280;26881;48.784;9.192;2023-01-29T09:30:35;99792.72;;;1.65;65.28
41140;BME280;26881;48.784;9.192;2023-01-29T09:36:01;99796.16;;;1.72;64.09
41140;BME280;26881;48.784;9.192;2023-01-29T09:47:24;99778.16;;;1.54;64.89
41140;BME280;26881;48.784;9.192;2023-01-29T09:52:57;99771.31;;;1.50;65.09
41140;BME280;26881;48.784;9.192;2023-01-29T09:58:34;99753.19;;;1.69;64.46
41140;BME280;26881;48.784;9.192;2023-01-29T10:04:12;99735.94;;;1.79;64.24
41140;BME280;26881;48.784;9.192;2023-01-29T10:15:27;99703.97;;;2.05;63.51
41140;BME280;26881;48.784;9.192;2023-01-29T10:21:15;99704.78;;;2.15;63.30
41140;BME280;26881;48.784;9.192;2023-01-29T10:26:42;99701.31;;;2.22;62.57
41140;BME280;26881;48.784;9.192;2023-01-29T10:32:04;99719.28;;;2.36;61.92
41140;BME280;26881;48.784;9.192;2023-01-29T10:37:39;99724.44;;;2.36;61.81
41140;BME280;26881;48.784;9.192;2023-01-29T10:43:05;99709.81;;;2.35;61.40
41140;BME280;26881;48.784;9.192;2023-01-29T11:00:25;99713.19;;;2.41;61.90
41140;BME280;26881;48.784;9.192;2023-01-29T11:05:54;99712.34;;;2.38;62.23
41140;BME280;26881;48.784;9.192;2023-01-29T11:11:19;99713.16;;;2.46;61.86
41140;BME280;26881;48.784;9.192;2023-01-29T11:16:45;99709.69;;;2.50;61.65
41140;BME280;26881;48.784;9.192;2023-01-29T11:27:39;99693.22;;;2.63;60.74
41140;BME280;26881;48.784;9.192;2023-01-29T11:33:21;99680.38;;;2.56;60.81
41140;BME280;26881;48.784;9.192;2023-01-29T11:38:44;99672.69;;;2.46;61.04
41140;BME280;26881;48.784;9.192;2023-01-29T11:44:17;99666.59;;;2.57;60.90
41140;BME280;26881;48.784;9.192;2023-01-29T11:49:44;99662.13;;;2.72;61.00
41140;BME280;26881;48.784;9.192;2023-01-29T11:55:24;99658.72;;;2.67;60.49
41140;BME280;26881;48.784;9.192;2023-01-29T12:00:49;99661.31;;;2.70;60.86
41140;BME280;26881;48.784;9.192;2023-01-29T12:06:30;99638.97;;;2.66;60.56
41140;BME280;26881;48.784;9.192;2023-01-29T12:11:54;99626.66;;;2.91;60.54
41140;BME280;26881;48.784;9.192;2023-01-29T12:17:20;99616.28;;;2.94;60.31
41140;BME280;26881;48.784;9.192;2023-01-29T12:23:24;99598.97;;;3.01;60.13
41140;BME280;26881;48.784;9.192;2023-01-29T12:28:53;99580.00;;;3.02;60.21
41140;BME280;26881;48.784;9.192;2023-01-29T12:39:48;99548.88;;;3.10;59.49
41140;BME280;26881;48.784;9.192;2023-01-29T12:45:16;99548.78;;;3.17;59.65
41140;BME280;26881;48.784;9.192;2023-01-29T12:50:39;99535.81;;;3.21;59.75
41140;BME280;26881;48.784;9.192;2023-01-29T12:56:04;99539.03;;;3.38;59.42
41140;BME280;26881;48.784;9.192;2023-01-29T13:01:32;99522.72;;;3.33;59.05
41140;BME280;26881;48.784;9.192;2023-01-29T13:07:08;99531.41;;;3.29;59.22
41140;BME280;26881;48.784;9.192;2023-01-29T13:12:33;99520.13;;;3.33;59.16
41140;BME280;26881;48.784;9.192;2023-01-29T13:18:01;99508.94;;;3.32;58.98
41140;BME280;26881;48.784;9.192;2023-01-29T13:23:33;99504.66;;;3.30;58.96
41140;BME280;26881;48.784;9.192;2023-01-29T13:28:57;99503.75;;;3.32;58.75
41140;BME280;26881;48.784;9.192;2023-01-29T13:34:24;99505.63;;;3.24;59.25
41140;BME280;26881;48.784;9.192;2023-01-29T13:39:51;99504.59;;;3.33;59.22
41140;BME280;26881;48.784;9.192;2023-01-29T13:45:23;99508.84;;;3.38;58.75
41140;BME280;26881;48.784;9.192;2023-01-29T13:50:46;99504.47;;;3.42;58.85
41140;BME280;26881;48.784;9.192;2023-01-29T13:56:27;99518.13;;;3.52;59.15
41140;BME280;26881;48.784;9.192;2023-01-29T14:18:58;99500.84;;;3.54;58.17
41140;BME280;26881;48.784;9.192;2023-01-29T14:24:23;99508.72;;;3.48;58.84
41140;BME280;26881;48.784;9.192;2023-01-29T14:29:50;99504.59;;;3.36;59.54
41140;BME280;26881;48.784;9.192;2023-01-29T14:35:20;99503.91;;;3.23;60.35
41140;BME280;26881;48.784;9.192;2023-01-29T14:40:45;99495.28;;;3.23;60.42
41140;BME280;26881;48.784;9.192;2023-01-29T14:51:55;99493.47;;;3.29;61.23
41140;BME280;26881;48.784;9.192;2023-01-29T14:57:17;99491.69;;;3.33;60.76
41140;BME280;26881;48.784;9.192;2023-01-29T15:02:42;99482.16;;;3.38;60.94
41140;BME280;26881;48.784;9.192;2023-01-29T15:08:25;99479.53;;;3.40;60.85
41140;BME280;26881;48.784;9.192;2023-01-29T15:19:46;99489.59;;;3.56;59.44
41140;BME280;26881;48.784;9.192;2023-01-29T15:25:13;99486.78;;;3.72;59.47
41140;BME280;26881;48.784;9.192;2023-01-29T15:30:36;99484.31;;;3.64;58.94
41140;BME280;26881;48.784;9.192;2023-01-29T15:36:00;99477.47;;;3.62;58.83
41140;BME280;26881;48.784;9.192;2023-01-29T15:41:29;99490.50;;;3.55;60.43
41140;BME280;26881;48.784;9.192;2023-01-29T15:46:56;99483.66;;;3.51;60.07
41140;BME280;26881;48.784;9.192;2023-01-29T15:52:21;99494.06;;;3.48;60.53
41140;BME280;26881;48.784;9.192;2023-01-29T15:57:44;99490.91;;;3.26;61.21
41140;BME280;26881;48.784;9.192;2023-01-29T16:03:13;99493.63;;;3.19;61.20
41140;BME280;26881;48.784;9.192;2023-01-29T16:08:38;99493.66;;;3.17;61.45
41140;BME280;26881;48.784;9.192;2023-01-29T16:14:02;99481.00;;;2.97;61.21
41140;BME280;26881;48.784;9.192;2023-01-29T16:19:27;99480.22;;;2.90;62.61
41140;BME280;26881;48.784;9.192;2023-01-29T16:24:49;99482.09;;;2.81;62.58
41140;BME280;26881;48.784;9.192;2023-01-29T16:30:15;99486.47;;;2.72;62.92
41140;BME280;26881;48.784;9.192;2023-01-29T16:35:38;99490.78;;;2.72;62.92
41140;BME280;26881;48.784;9.192;2023-01-29T16:41:07;99494.31;;;2.66;62.18
41140;BME280;26881;48.784;9.192;2023-01-29T16:46:44;99509.78;;;2.68;62.88
41140;BME280;26881;48.784;9.192;2023-01-29T16:57:49;99510.78;;;2.56;63.96
41140;BME280;26881;48.784;9.192;2023-01-29T17:03:13;99515.19;;;2.46;65.65
41140;BME280;26881;48.784;9.192;2023-01-29T17:08:36;99517.03;;;2.38;65.45
41140;BME280;26881;48.784;9.192;2023-01-29T17:13:59;99525.66;;;2.36;66.25
41140;BME280;26881;48.784;9.192;2023-01-29T17:19:21;99519.72;;;2.27;66.35
41140;BME280;26881;48.784;9.192;2023-01-29T17:24:45;99519.84;;;2.14;66.23
41140;BME280;26881;48.784;9.192;2023-01-29T17:30:13;99512.25;;;1.98;67.09
41140;BME280;26881;48.784;9.192;2023-01-29T17:35:36;99513.13;;;1.96;67.79
41140;BME280;26881;48.784;9.192;2023-01-29T17:46:28;99495.97;;;1.92;67.25
41140;BME280;26881;48.784;9.192;2023-01-29T17:51:51;99504.59;;;1.87;67.34
41140;BME280;26881;48.784;9.192;2023-01-29T17:57:14;99502.03;;;1.87;67.70
41140;BME280;26881;48.784;9.192;2023-01-29T18:02:36;99496.88;;;1.89;68.01
41140;BME280;26881;48.784;9.192;2023-01-29T18:07:58;99496.94;;;1.80;67.92
41140;BME280;26881;48.784;9.192;2023-01-29T18:13:20;99494.34;;;1.81;68.40
41140;BME280;26881;48.784;9.192;2023-01-29T18:18:41;99492.72;;;1.71;68.57
41140;BME280;26881;48.784;9.192;2023-01-29T18:24:03;99495.38;;;1.62;69.58
41140;BME280;26881;48.784;9.192;2023-01-29T18:29:25;99493.81;;;1.39;69.69
41140;BME280;26881;48.784;9.192;2023-01-29T18:34:50;99488.72;;;1.33;70.71
41140;BME280;26881;48.784;9.192;2023-01-29T18:40:12;99492.19;;;1.27;70.90
41140;BME280;26881;48.784;9.192;2023-01-29T18:45:34;99489.53;;;1.38;70.63
41140;BME280;26881;48.784;9.192;2023-01-29T18:50:56;99484.34;;;1.40;70.43
41140;BME280;26881;48.784;9.192;2023-01-29T18:56:19;99492.13;;;1.37;70.71
41140;BME280;26881;48.784;9.192;2023-01-29T19:01:41;99487.94;;;1.19;71.75
41140;BME280;26881;48.784;9.192;2023-01-29T19:07:02;99499.13;;;1.15;72.50
41140;BME280;26881;48.784;9.192;2023-01-29T19:12:25;99503.44;;;1.13;72.69
41140;BME280;26881;48.784;9.192;2023-01-29T19:17:48;99515.44;;;1.20;72.80
41140;BME280;26881;48.784;9.192;2023-01-29T19:23:10;99510.28;;;1.15;73.13
41140;BME280;26881;48.784;9.192;2023-01-29T19:28:32;99516.28;;;1.22;72.88
41140;BME280;26881;48.784;9.192;2023-01-29T19:33:54;99512.84;;;1.18;72.88
41140;BME280;26881;48.784;9.192;2023-01-29T19:39:16;99524.09;;;1.03;73.25
41140;BME280;26881;48.784;9.192;2023-01-29T19:44:37;99513.78;;;1.07;73.22
41140;BME280;26881;48.784;9.192;2023-01-29T19:50:00;99519.81;;;0.98;74.08
41140;BME280;26881;48.784;9.192;2023-01-29T19:55:22;99525.88;;;0.92;74.43
41140;BME280;26881;48.784;9.192;2023-01-29T20:00:44;99524.19;;;0.91;74.35
41140;BME280;26881;48.784;9.192;2023-01-29T20:06:06;99523.34;;;0.83;74.17
41140;BME280;26881;48.784;9.192;2023-01-29T20:11:29;99522.50;;;0.84;74.36
41140;BME280;26881;48.784;9.192;2023-01-29T20:16:51;99511.31;;;0.79;74.20
41140;BME280;26881;48.784;9.192;2023-01-29T20:22:13;99512.19;;;0.84;74.08
41140;BME280;26881;48.784;9.192;2023-01-29T20:27:35;99508.81;;;0.73;74.29
41140;BME280;26881;48.784;9.192;2023-01-29T20:32:57;99510.47;;;0.81;74.13
41140;BME280;26881;48.784;9.192;2023-01-29T20:38:19;99493.34;;;0.73;74.77
41140;BME280;26881;48.784;9.192;2023-01-29T20:43:41;99483.94;;;0.70;75.32
41140;BME280;26881;48.784;9.192;2023-01-29T20:49:04;99479.59;;;0.72;75.33
41140;BME280;26881;48.784;9.192;2023-01-29T20:54:38;99467.59;;;0.71;74.84
41140;BME280;26881;48.784;9.192;2023-01-29T21:00:01;99455.63;;;0.58;75.26
41140;BME280;26881;48.784;9.192;2023-01-29T21:05:23;99441.94;;;0.51;75.95
41140;BME280;26881;48.784;9.192;2023-01-29T21:10:48;99433.34;;;0.58;75.56
41140;BME280;26881;48.784;9.192;2023-01-29T21:16:09;99437.66;;;0.55;75.81
41140;BME280;26881;48.784;9.192;2023-01-29T21:21:32;99435.09;;;0.56;74.97
41140;BME280;26881;48.784;9.192;2023-01-29T21:26:54;99446.25;;;0.51;75.37
41140;BME280;26881;48.784;9.192;2023-01-29T21:32:16;99449.66;;;0.56;75.17
41140;BME280;26881;48.784;9.192;2023-01-29T21:37:40;99447.88;;;0.69;74.53
41140;BME280;26881;48.784;9.192;2023-01-29T21:43:02;99459.00;;;0.74;74.08
41140;BME280;26881;48.784;9.192;2023-01-29T21:48:33;99458.16;;;0.75;73.95
41140;BME280;26881;48.784;9.192;2023-01-29T21:53:55;99456.44;;;0.74;73.89
41140;BME280;26881;48.784;9.192;2023-01-29T21:59:17;99454.72;;;0.77;74.06
41140;BME280;26881;48.784;9.192;2023-01-29T22:04:39;99446.09;;;0.78;73.97
41140;BME280;26881;48.784;9.192;2023-01-29T22:10:01;99450.47;;;0.69;73.58
41140;BME280;26881;48.784;9.192;2023-01-29T22:15:23;99456.47;;;0.71;74.45
41140;BME280;26881;48.784;9.192;2023-01-29T22:20:44;99448.72;;;0.69;74.57
41140;BME280;26881;48.784;9.192;2023-01-29T22:26:06;99446.16;;;0.71;73.74
41140;BME280;26881;48.784;9.192;2023-01-29T22:31:30;99447.03;;;0.68;73.89
41140;BME280;26881;48.784;9.192;2023-01-29T22:36:52;99443.59;;;0.66;73.71
41140;BME280;26881;48.784;9.192;2023-01-29T22:42:14;99440.22;;;0.55;73.99
41140;BME280;26881;48.784;9.192;2023-01-29T22:47:37;99408.50;;;0.54;73.64
41140;BME280;26881;48.784;9.192;2023-01-29T22:52:59;99400.75;;;0.57;73.58
41140;BME280;26881;48.784;9.192;2023-01-29T22:58:21;99386.22;;;0.46;73.71
41140;BME280;26881;48.784;9.192;2023-01-29T23:03:42;99368.22;;;0.41;74.60
41140;BME280;26881;48.784;9.192;2023-01-29T23:09:04;99354.53;;;0.34;74.86
41140;BME280;26881;48.784;9.192;2023-01-29T23:14:26;99340.78;;;0.37;74.57
41140;BME280;26881;48.784;9.192;2023-01-29T23:19:48;99345.09;;;0.36;74.79
41140;BME280;26881;48.784;9.192;2023-01-29T23:25:09;99351.94;;;0.39;74.87
41140;BME280;26881;48.784;9.192;2023-01-29T23:30:31;99336.56;;;0.30;75.24
41140;BME280;26881;48.784;9.192;2023-01-29T23:35:53;99332.25;;;0.33;75.27
41140;BME280;26881;48.784;9.192;2023-01-29T23:41:15;99337.41;;;0.33;75.19
41140;BME280;26881;48.784;9.192;2023-01-29T23:46:36;99337.41;;;0.32;75.04
41140;BME280;26881;48.784;9.192;2023-01-29T23:51:58;99311.72;;;0.23;75.10
41140;BME280;26881;48.784;9.192;2023-01-29T23:57:20;99311.66;;;0.38;74.88
